createdAt,value
2018-10-01T00:00:41.116Z,15.05
2018-10-01T00:03:11.742Z,16.48
2018-10-01T00:05:43.123Z,10.25
2018-10-01T00:08:13.702Z,13.25
2018-10-01T00:10:44.492Z,10.72
2018-10-01T00:13:15.078Z,13.65
2018-10-01T00:15:45.662Z,14.35
2018-10-01T00:18:16.455Z,12.00
2018-10-01T00:20:52.583Z,12.47
2018-10-01T00:23:23.502Z,16.40
2018-10-01T00:25:54.108Z,12.00
2018-10-01T00:28:24.708Z,14.13
2018-10-01T00:30:55.276Z,16.57
2018-10-01T00:33:25.878Z,11.38
2018-10-01T00:35:56.456Z,10.53
2018-10-01T00:38:27.097Z,13.68
2018-10-01T00:40:57.868Z,13.20
2018-10-01T00:43:28.658Z,15.58
2018-10-01T00:45:59.272Z,14.87
2018-10-01T00:48:29.871Z,11.75
2018-10-01T00:51:00.484Z,11.25
2018-10-01T00:53:31.423Z,8.30
2018-10-01T00:56:01.997Z,11.12
2018-10-01T00:58:32.603Z,12.33
2018-10-01T01:01:03.194Z,12.07
2018-10-01T01:03:33.799Z,11.85
2018-10-01T01:06:04.383Z,9.68
2018-10-01T01:08:34.987Z,12.98
2018-10-01T01:11:05.547Z,10.32
2018-10-01T01:13:36.204Z,10.08
2018-10-01T01:16:06.810Z,8.75
2018-10-01T01:18:37.575Z,8.98
2018-10-01T01:21:08.199Z,12.18
2018-10-01T01:23:38.784Z,10.08
2018-10-01T01:26:09.588Z,9.60
2018-10-01T01:28:40.175Z,11.93
2018-10-01T01:31:11.190Z,10.75
2018-10-01T01:33:41.780Z,11.85
2018-10-01T01:36:12.393Z,12.00
2018-10-01T01:38:42.997Z,11.18
2018-10-01T01:41:13.868Z,9.13
2018-10-01T01:43:45.032Z,10.82
2018-10-01T01:46:15.744Z,12.25
2018-10-01T01:48:46.339Z,11.63
2018-10-01T01:51:16.915Z,9.05
2018-10-01T01:53:47.515Z,8.38
2018-10-01T01:56:18.099Z,9.90
2018-10-01T01:58:48.696Z,11.55
2018-10-01T02:01:19.279Z,12.23
2018-10-01T02:03:50.067Z,9.80
2018-10-01T02:06:20.843Z,10.75
2018-10-01T02:08:51.430Z,8.23
2018-10-01T02:11:22.485Z,11.95
2018-10-01T02:13:53.068Z,6.30
2018-10-01T02:16:23.648Z,8.58
2018-10-01T02:18:54.262Z,11.90
2018-10-01T02:21:24.855Z,6.72
2018-10-01T02:23:55.482Z,7.33
2018-10-01T02:26:26.057Z,7.47
2018-10-01T02:28:56.644Z,10.00
2018-10-01T02:31:27.215Z,12.13
2018-10-01T02:33:57.817Z,9.45
2018-10-01T02:36:28.576Z,7.62
2018-10-01T02:38:59.337Z,7.45
2018-10-01T02:41:30.116Z,9.15
2018-10-01T02:44:00.699Z,8.28
2018-10-01T02:46:31.468Z,9.15
2018-10-01T02:49:02.055Z,8.88
2018-10-01T02:51:37.195Z,8.63
2018-10-01T02:54:13.255Z,16.25
2018-10-01T02:56:43.843Z,8.75
2018-10-01T02:59:14.611Z,8.83
2018-10-01T03:01:45.204Z,7.45
2018-10-01T03:04:15.968Z,9.88
2018-10-01T03:06:53.426Z,9.80
2018-10-01T03:09:24.009Z,9.93
2018-10-01T03:11:54.628Z,10.75
2018-10-01T03:14:25.235Z,9.73
2018-10-01T03:16:56.011Z,8.25
2018-10-01T03:19:26.914Z,8.83
2018-10-01T03:21:57.723Z,10.13
2018-10-01T03:24:28.499Z,7.62
2018-10-01T03:26:59.095Z,6.55
2018-10-01T03:29:29.666Z,8.73
2018-10-01T03:32:00.465Z,9.05
2018-10-01T03:34:31.027Z,8.55
2018-10-01T03:37:01.612Z,7.85
2018-10-01T03:39:32.199Z,11.68
2018-10-01T03:42:02.816Z,10.18
2018-10-01T03:44:33.396Z,8.65
2018-10-01T03:47:04.302Z,9.23
2018-10-01T03:49:34.898Z,8.23
2018-10-01T03:52:05.478Z,9.70
2018-10-01T03:54:36.076Z,7.20
2018-10-01T03:57:06.654Z,7.67
2018-10-01T03:59:37.584Z,10.70
2018-10-01T04:02:08.643Z,14.18
2018-10-01T04:04:39.538Z,8.65
2018-10-01T04:07:10.127Z,10.58
2018-10-01T04:09:40.691Z,6.97
2018-10-01T04:12:11.277Z,8.70
2018-10-01T04:14:41.856Z,7.17
2018-10-01T04:17:12.701Z,8.55
2018-10-01T04:19:43.300Z,9.63
2018-10-01T04:22:14.084Z,7.58
2018-10-01T04:24:44.667Z,12.43
2018-10-01T04:27:15.258Z,8.00
2018-10-01T04:29:46.057Z,9.88
2018-10-01T04:32:16.652Z,11.80
2018-10-01T04:34:56.072Z,9.23
2018-10-01T04:37:26.668Z,13.10
2018-10-01T04:39:57.222Z,7.97
2018-10-01T04:42:28.175Z,10.32
2018-10-01T04:44:58.934Z,8.85
2018-10-01T04:47:29.516Z,13.05
2018-10-01T04:50:00.444Z,10.15
2018-10-01T04:52:31.056Z,15.55
2018-10-01T04:55:01.619Z,11.68
2018-10-01T04:57:32.431Z,9.23
2018-10-01T05:00:03.052Z,12.58
2018-10-01T05:02:33.660Z,11.33
2018-10-01T05:05:04.568Z,14.10
2018-10-01T05:07:34.032Z,10.35
2018-10-01T05:10:04.954Z,14.55
2018-10-01T05:12:35.869Z,6.97
2018-10-01T05:15:06.458Z,9.58
2018-10-01T05:17:37.040Z,10.05
2018-10-01T05:20:07.701Z,14.47
2018-10-01T05:22:38.263Z,10.20
2018-10-01T05:25:08.874Z,10.18
2018-10-01T05:27:39.452Z,12.98
2018-10-01T05:30:10.033Z,9.98
2018-10-01T05:32:40.604Z,11.70
2018-10-01T05:35:11.174Z,9.78
2018-10-01T05:37:41.766Z,10.50
2018-10-01T05:40:12.541Z,10.58
2018-10-01T05:42:43.116Z,12.25
2018-10-01T05:45:13.918Z,9.13
2018-10-01T05:47:44.493Z,12.68
2018-10-01T05:50:15.275Z,15.23
2018-10-01T05:52:45.864Z,13.75
2018-10-01T05:55:16.418Z,9.73
2018-10-01T05:57:47.080Z,15.78
2018-10-01T06:00:17.803Z,10.20
2018-10-01T06:02:48.412Z,15.10
2018-10-01T06:05:18.993Z,8.28
2018-10-01T06:07:49.601Z,12.82
2018-10-01T06:10:22.218Z,9.55
2018-10-01T06:12:52.808Z,10.30
2018-10-01T06:15:23.372Z,10.30
2018-10-01T06:17:53.972Z,8.68
2018-10-01T06:20:24.566Z,7.58
2018-10-01T06:22:55.133Z,13.28
2018-10-01T06:25:25.728Z,13.88
2018-10-01T06:27:56.289Z,8.50
2018-10-01T06:30:27.002Z,10.38
2018-10-01T06:32:57.546Z,8.80
2018-10-01T06:35:28.141Z,11.63
2018-10-01T06:37:59.017Z,8.98
2018-10-01T06:40:29.786Z,8.35
2018-10-01T06:43:00.356Z,9.33
2018-10-01T06:45:31.295Z,11.05
2018-10-01T06:48:01.887Z,16.42
2018-10-01T06:50:32.683Z,8.73
2018-10-01T06:53:03.440Z,7.28
2018-10-01T06:55:33.994Z,6.30
2018-10-01T06:58:04.579Z,11.43
2018-10-01T07:00:35.163Z,10.43
2018-10-01T07:03:05.776Z,10.15
2018-10-01T07:05:36.411Z,8.63
2018-10-01T07:08:07.457Z,8.78
2018-10-01T07:10:38.003Z,8.90
2018-10-01T07:13:08.701Z,10.38
2018-10-01T07:15:39.451Z,7.33
2018-10-01T07:18:10.007Z,6.60
2018-10-01T07:20:40.852Z,9.70
2018-10-01T07:23:11.727Z,7.62
2018-10-01T07:25:42.382Z,6.75
2018-10-01T07:28:12.966Z,8.28
2018-10-01T07:30:43.574Z,6.37
2018-10-01T07:33:14.151Z,7.97
2018-10-01T07:35:44.728Z,5.83
2018-10-01T07:38:15.320Z,6.80
2018-10-01T07:40:45.939Z,5.53
2018-10-01T07:43:16.515Z,7.47
2018-10-01T07:45:47.103Z,6.83
2018-10-01T07:48:17.896Z,5.20
2018-10-01T07:50:48.860Z,4.15
2018-10-01T07:53:19.649Z,5.35
2018-10-01T07:55:50.415Z,7.20
2018-10-01T07:58:21.188Z,4.62
2018-10-01T08:00:51.790Z,4.10
2018-10-01T08:03:22.341Z,6.05
2018-10-01T08:05:53.069Z,3.70
2018-10-01T08:08:23.840Z,4.55
2018-10-01T08:10:54.591Z,5.30
2018-10-01T08:13:25.163Z,4.12
2018-10-01T08:15:55.790Z,4.53
2018-10-01T08:18:26.530Z,4.08
2018-10-01T08:20:57.434Z,4.53
2018-10-01T08:23:28.061Z,4.90
2018-10-01T08:25:58.760Z,9.10
2018-10-01T08:28:29.574Z,1.90
2018-10-01T08:31:00.178Z,4.05
2018-10-01T08:33:30.931Z,7.58
2018-10-01T08:36:01.701Z,3.90
2018-10-01T08:38:32.301Z,4.10
2018-10-01T08:41:03.120Z,3.80
2018-10-01T08:43:33.825Z,2.42
2018-10-01T08:46:04.548Z,2.60
2018-10-01T08:48:37.106Z,3.05
2018-10-01T08:51:11.964Z,6.05
2018-10-01T08:53:49.850Z,3.00
2018-10-01T08:56:20.760Z,3.27
2018-10-01T08:58:51.476Z,4.25
2018-10-01T09:01:22.055Z,9.63
2018-10-01T09:03:52.615Z,2.33
2018-10-01T09:06:23.203Z,5.37
2018-10-01T09:08:53.786Z,7.62
2018-10-01T09:11:24.570Z,5.50
2018-10-01T09:13:55.328Z,2.60
2018-10-01T09:16:25.860Z,6.22
2018-10-01T09:18:56.743Z,4.62
2018-10-01T09:21:27.327Z,2.12
2018-10-01T09:23:58.392Z,7.00
2018-10-01T09:26:29.071Z,4.10
2018-10-01T09:28:59.752Z,9.30
2018-10-01T09:31:30.540Z,5.78
2018-10-01T09:34:01.098Z,4.72
2018-10-01T09:36:31.859Z,6.03
2018-10-01T09:39:02.435Z,6.22
2018-10-01T09:41:33.008Z,3.92
2018-10-01T09:44:04.172Z,2.40
2018-10-01T09:46:34.950Z,2.50
2018-10-01T09:49:05.671Z,4.75
2018-10-01T09:51:36.471Z,2.55
2018-10-01T09:54:07.016Z,2.10
2018-10-01T09:56:37.602Z,2.60
2018-10-01T09:59:08.303Z,4.55
2018-10-01T10:01:39.035Z,3.22
2018-10-01T10:04:09.678Z,9.23
2018-10-01T10:06:40.348Z,3.95
2018-10-01T10:09:11.723Z,5.08
2018-10-01T10:11:42.308Z,3.67
2018-10-01T10:14:12.950Z,4.55
2018-10-01T10:16:43.721Z,5.58
2018-10-01T10:19:14.378Z,3.15
2018-10-01T10:21:44.944Z,2.85
2018-10-01T10:24:15.475Z,4.60
2018-10-01T10:26:46.059Z,4.08
2018-10-01T10:29:16.621Z,5.22
2018-10-01T10:31:47.396Z,4.15
2018-10-01T10:34:17.942Z,3.20
2018-10-01T10:36:48.733Z,1.95
2018-10-01T10:39:19.274Z,4.17
2018-10-01T10:41:49.906Z,5.95
2018-10-01T10:44:20.663Z,2.22
2018-10-01T10:46:51.471Z,4.33
2018-10-01T10:49:22.067Z,3.25
2018-10-01T10:51:52.711Z,2.08
2018-10-01T10:54:23.294Z,2.12
2018-10-01T10:56:54.207Z,6.03
2018-10-01T10:59:24.974Z,3.00
2018-10-01T11:01:55.763Z,1.95
2018-10-01T11:04:26.527Z,4.35
2018-10-01T11:06:57.073Z,2.27
2018-10-01T11:09:27.848Z,3.80
2018-10-01T11:11:58.393Z,2.60
2018-10-01T11:14:29.499Z,7.17
2018-10-01T11:17:06.988Z,5.67
2018-10-01T11:19:37.760Z,3.85
2018-10-01T11:22:08.508Z,4.50
2018-10-01T11:24:39.260Z,4.30
2018-10-01T11:27:09.859Z,4.85
2018-10-01T11:29:40.599Z,2.47
2018-10-01T11:32:11.159Z,4.95
2018-10-01T11:34:41.905Z,1.87
2018-10-01T11:37:13.020Z,5.90
2018-10-01T11:39:43.654Z,4.15
2018-10-01T11:42:14.395Z,2.20
2018-10-01T11:44:44.963Z,2.92
2018-10-01T11:47:15.524Z,1.87
2018-10-01T11:49:46.083Z,2.12
2018-10-01T11:52:16.643Z,4.60
2018-10-01T11:54:47.218Z,4.10
2018-10-01T11:57:17.815Z,2.65
2018-10-01T11:59:48.536Z,3.62
2018-10-01T12:02:19.080Z,7.62
2018-10-01T12:04:49.919Z,3.02
2018-10-01T12:07:20.697Z,3.50
2018-10-01T12:09:51.353Z,2.08
2018-10-01T12:12:22.038Z,3.98
2018-10-01T12:14:52.778Z,3.35
2018-10-01T12:17:23.343Z,2.37
2018-10-01T12:19:53.930Z,5.25
2018-10-01T12:22:24.734Z,1.85
2018-10-01T12:24:55.296Z,2.47
2018-10-01T12:27:25.869Z,2.83
2018-10-01T12:29:56.628Z,3.52
2018-10-01T12:32:27.259Z,1.50
2018-10-01T12:34:58.029Z,4.42
2018-10-01T12:37:28.745Z,6.20
2018-10-01T12:39:59.306Z,1.45
2018-10-01T12:42:30.102Z,2.83
2018-10-01T12:45:00.660Z,1.52
2018-10-01T12:47:31.427Z,2.15
2018-10-01T12:50:01.971Z,2.22
2018-10-01T12:52:32.920Z,1.92
2018-10-01T12:55:03.468Z,1.85
2018-10-01T12:57:34.089Z,1.75
2018-10-01T13:00:04.848Z,2.72
2018-10-01T13:02:35.427Z,3.10
2018-10-01T13:05:06.191Z,3.58
2018-10-01T13:07:36.940Z,0.57
2018-10-01T13:10:07.684Z,1.55
2018-10-01T13:12:38.543Z,0.30
2018-10-01T13:15:09.214Z,0.33
2018-10-01T13:17:39.772Z,0.55
2018-10-01T13:20:10.512Z,0.90
2018-10-01T13:22:41.339Z,2.05
2018-10-01T13:25:12.216Z,4.37
2018-10-01T13:27:42.875Z,3.42
2018-10-01T13:30:13.626Z,4.35
2018-10-01T13:32:44.320Z,6.25
2018-10-01T13:35:15.099Z,3.37
2018-10-01T13:37:45.921Z,4.40
2018-10-01T13:40:16.731Z,2.77
2018-10-01T13:42:47.538Z,2.90
2018-10-01T13:45:18.271Z,6.37
2018-10-01T13:47:49.016Z,7.50
2018-10-01T13:50:19.812Z,6.85
2018-10-01T13:52:50.682Z,4.55
2018-10-01T13:55:21.847Z,6.20
2018-10-01T13:57:52.607Z,4.30
2018-10-01T14:00:23.707Z,6.72
2018-10-01T14:02:54.459Z,5.78
2018-10-01T14:05:25.228Z,4.97
2018-10-01T14:07:55.983Z,5.20
2018-10-01T14:10:26.780Z,12.73
2018-10-01T14:12:58.164Z,8.15
2018-10-01T14:15:28.916Z,5.33
2018-10-01T14:17:59.677Z,7.20
2018-10-01T14:20:30.771Z,5.12
2018-10-01T14:23:01.479Z,4.87
2018-10-01T14:25:32.338Z,5.90
2018-10-01T14:28:03.011Z,6.25
2018-10-01T14:30:33.819Z,5.83
2018-10-01T14:33:04.548Z,7.47
2018-10-01T14:35:35.310Z,8.13
2018-10-01T14:38:06.108Z,9.85
2018-10-01T14:40:36.699Z,5.78
2018-10-01T14:43:07.507Z,6.30
2018-10-01T14:45:44.784Z,3.85
2018-10-01T14:48:15.465Z,6.95
2018-10-01T14:50:46.158Z,6.67
2018-10-01T14:53:16.724Z,6.92
2018-10-01T14:55:47.303Z,7.10
2018-10-01T14:58:18.125Z,7.37
2018-10-01T15:00:48.721Z,5.12
2018-10-01T15:03:19.455Z,7.80
2018-10-01T15:05:50.022Z,4.50
2018-10-01T15:08:20.760Z,6.10
2018-10-01T15:10:51.424Z,6.20
2018-10-01T15:13:22.096Z,5.45
2018-10-01T15:15:52.698Z,5.90
2018-10-01T15:18:23.279Z,5.47
2018-10-01T15:20:54.060Z,7.75
2018-10-01T15:23:24.943Z,4.37
2018-10-01T15:25:55.531Z,7.05
2018-10-01T15:28:26.062Z,5.12
2018-10-01T15:30:56.889Z,11.18
2018-10-01T15:33:27.435Z,4.87
2018-10-01T15:35:58.041Z,5.30
2018-10-01T15:38:28.559Z,9.33
2018-10-01T15:40:59.145Z,4.35
2018-10-01T15:43:29.853Z,10.00
2018-10-01T15:46:00.428Z,5.17
2018-10-01T15:48:30.997Z,6.30
2018-10-01T15:51:01.783Z,14.13
2018-10-01T15:53:32.535Z,5.60
2018-10-01T15:56:03.140Z,9.35
2018-10-01T15:58:33.881Z,9.43
2018-10-01T16:01:04.482Z,8.20
2018-10-01T16:03:35.076Z,10.43
2018-10-01T16:06:05.917Z,10.15
2018-10-01T16:08:36.486Z,9.15
2018-10-01T16:11:07.126Z,10.40
2018-10-01T16:13:37.871Z,8.55
2018-10-01T16:16:08.492Z,6.53
2018-10-01T16:18:39.053Z,9.85
2018-10-01T16:21:09.968Z,8.98
2018-10-01T16:23:40.720Z,6.75
2018-10-01T16:26:11.312Z,7.70
2018-10-01T16:28:41.899Z,10.30
2018-10-01T16:31:12.491Z,7.58
2018-10-01T16:33:43.048Z,9.53
2018-10-01T16:36:13.837Z,7.80
2018-10-01T16:38:44.608Z,9.20
2018-10-01T16:41:15.392Z,8.23
2018-10-01T16:43:45.960Z,5.92
2018-10-01T16:46:16.520Z,6.55
2018-10-01T16:48:47.087Z,4.53
2018-10-01T16:51:17.639Z,5.17
2018-10-01T16:53:48.406Z,3.67
2018-10-01T16:56:19.164Z,6.40
2018-10-01T16:58:49.755Z,7.15
2018-10-01T17:01:20.439Z,3.15
2018-10-01T17:03:51.203Z,6.08
2018-10-01T17:06:25.979Z,3.67
2018-10-01T17:08:56.562Z,3.30
2018-10-01T17:11:27.578Z,2.98
2018-10-01T17:13:58.352Z,4.72
2018-10-01T17:16:28.920Z,5.70
2018-10-01T17:18:59.535Z,6.75
2018-10-01T17:21:30.285Z,2.45
2018-10-01T17:24:01.199Z,2.42
2018-10-01T17:26:31.824Z,6.15
2018-10-01T17:29:02.451Z,4.62
2018-10-01T17:31:33.241Z,6.08
2018-10-01T17:34:03.828Z,6.85
2018-10-01T17:36:34.407Z,4.72
2018-10-01T17:39:07.673Z,5.25
2018-10-01T17:41:38.778Z,6.42
2018-10-01T17:44:09.627Z,5.35
2018-10-01T17:46:40.171Z,5.28
2018-10-01T17:49:10.779Z,6.17
2018-10-01T17:51:41.332Z,5.78
2018-10-01T17:54:11.939Z,4.90
2018-10-01T17:56:42.683Z,4.80
2018-10-01T17:59:13.240Z,6.70
2018-10-01T18:01:43.785Z,4.25
2018-10-01T18:04:14.674Z,5.55
2018-10-01T18:06:45.399Z,4.55
2018-10-01T18:09:16.015Z,3.62
2018-10-01T18:11:46.585Z,1.98
2018-10-01T18:14:17.359Z,3.25
2018-10-01T18:16:49.359Z,2.90
2018-10-01T18:19:21.255Z,4.62
2018-10-01T18:21:52.902Z,4.15
2018-10-01T18:24:25.214Z,4.55
2018-10-01T18:26:56.933Z,4.95
2018-10-01T18:29:29.412Z,6.47
2018-10-01T18:32:01.046Z,3.12
2018-10-01T18:34:32.785Z,3.20
2018-10-01T18:37:04.459Z,3.70
2018-10-01T18:39:35.889Z,2.42
2018-10-01T18:42:08.227Z,5.28
2018-10-01T18:44:40.096Z,3.67
2018-10-01T18:47:11.441Z,3.42
2018-10-01T18:49:43.302Z,4.00
2018-10-01T18:52:14.690Z,4.08
2018-10-01T18:54:45.523Z,4.33
2018-10-01T18:57:16.579Z,5.30
2018-10-01T18:59:47.276Z,6.00
2018-10-01T19:02:18.033Z,4.33
2018-10-01T19:04:48.603Z,5.90
2018-10-01T19:07:19.237Z,6.12
2018-10-01T19:09:49.827Z,12.18
2018-10-01T19:12:20.569Z,5.67
2018-10-01T19:14:51.345Z,6.25
2018-10-01T19:17:22.103Z,9.03
2018-10-01T19:19:52.719Z,16.27
2018-10-01T19:22:23.414Z,7.00
2018-10-01T19:24:53.978Z,5.53
2018-10-01T19:27:24.720Z,9.70
2018-10-01T19:29:55.400Z,10.43
2018-10-01T19:32:26.118Z,5.12
2018-10-01T19:34:56.847Z,5.92
2018-10-01T19:37:27.506Z,8.35
2018-10-01T19:39:58.155Z,5.08
2018-10-01T19:42:28.755Z,7.78
2018-10-01T19:44:59.381Z,7.58
2018-10-01T19:47:30.185Z,8.03
2018-10-01T19:50:00.928Z,5.72
2018-10-01T19:52:31.693Z,7.62
2018-10-01T19:55:02.303Z,7.35
2018-10-01T19:57:32.860Z,5.80
2018-10-01T20:00:03.468Z,6.60
2018-10-01T20:02:34.230Z,10.88
2018-10-01T20:05:05.589Z,8.90
2018-10-01T20:07:36.311Z,7.53
2018-10-01T20:10:07.132Z,4.75
2018-10-01T20:12:37.865Z,9.43
2018-10-01T20:15:08.795Z,4.90
2018-10-01T20:17:39.515Z,6.90
2018-10-01T20:20:10.172Z,3.60
2018-10-01T20:22:40.740Z,6.33
2018-10-01T20:25:11.316Z,7.55
2018-10-01T20:27:42.104Z,8.00
2018-10-01T20:30:12.855Z,6.22
2018-10-01T20:32:43.609Z,7.05
2018-10-01T20:35:14.221Z,4.05
2018-10-01T20:37:44.983Z,9.63
2018-10-01T20:40:15.700Z,5.95
2018-10-01T20:42:46.615Z,6.78
2018-10-01T20:45:17.371Z,7.00
2018-10-01T20:47:47.971Z,5.50
2018-10-01T20:50:19.194Z,6.15
2018-10-01T20:52:50.040Z,8.05
2018-10-01T20:55:20.713Z,7.28
2018-10-01T20:57:51.284Z,5.85
2018-10-01T21:00:22.155Z,6.05
2018-10-01T21:02:52.741Z,5.10
2018-10-01T21:05:23.503Z,12.10
2018-10-01T21:07:54.461Z,7.42
2018-10-01T21:10:31.718Z,5.83
2018-10-01T21:13:02.484Z,5.10
2018-10-01T21:15:33.095Z,8.05
2018-10-01T21:18:03.679Z,5.58
2018-10-01T21:20:34.274Z,8.10
2018-10-01T21:23:04.847Z,7.90
2018-10-01T21:25:35.403Z,8.45
2018-10-01T21:28:06.320Z,7.22
2018-10-01T21:30:36.903Z,8.50
2018-10-01T21:33:07.504Z,15.68
2018-10-01T21:35:38.107Z,10.80
2018-10-01T21:38:08.672Z,9.35
2018-10-01T21:40:39.603Z,7.67
2018-10-01T21:43:10.168Z,9.83
2018-10-01T21:45:40.912Z,9.10
2018-10-01T21:48:11.454Z,7.37
2018-10-01T21:50:42.018Z,8.40
2018-10-01T21:53:12.570Z,9.13
2018-10-01T21:55:43.146Z,16.40
2018-10-01T21:58:13.925Z,7.72
2018-10-01T22:00:50.023Z,9.00
2018-10-01T22:03:20.574Z,11.20
2018-10-01T22:05:51.157Z,7.53
2018-10-01T22:08:21.716Z,9.93
2018-10-01T22:10:52.304Z,8.08
2018-10-01T22:13:22.899Z,10.55
2018-10-01T22:15:53.511Z,10.20
2018-10-01T22:18:24.084Z,10.43
2018-10-01T22:20:54.707Z,8.30
2018-10-01T22:23:25.465Z,8.70
2018-10-01T22:25:56.078Z,10.03
2018-10-01T22:28:26.630Z,10.35
2018-10-01T22:30:57.210Z,8.08
2018-10-01T22:33:27.779Z,13.48
2018-10-01T22:35:58.386Z,7.97
2018-10-01T22:38:29.141Z,7.35
2018-10-01T22:40:59.907Z,10.45
2018-10-01T22:43:30.495Z,9.00
2018-10-01T22:49:06.820Z,8.48
2018-10-01T22:51:37.452Z,10.20
2018-10-01T22:54:07.995Z,9.15
2018-10-01T22:56:38.584Z,12.63
2018-10-01T22:59:09.231Z,13.13
2018-10-01T23:01:46.593Z,9.63
2018-10-01T23:04:17.360Z,9.30
2018-10-01T23:06:48.123Z,8.88
2018-10-01T23:09:18.686Z,7.58
2018-10-01T23:11:49.269Z,5.05
2018-10-01T23:14:20.057Z,5.15
2018-10-01T23:16:50.630Z,13.28
2018-10-01T23:19:21.218Z,9.98
2018-10-01T23:21:51.760Z,8.08
2018-10-01T23:24:22.354Z,8.55
2018-10-01T23:26:52.907Z,7.58
2018-10-01T23:29:23.674Z,5.72
2018-10-01T23:31:54.334Z,9.65
2018-10-01T23:34:24.895Z,6.87
2018-10-01T23:36:55.647Z,5.40
2018-10-01T23:39:26.238Z,6.00
2018-10-01T23:42:03.927Z,4.90
2018-10-01T23:44:34.508Z,9.35
2018-10-01T23:47:05.285Z,7.97
2018-10-01T23:49:35.879Z,15.50
2018-10-01T23:52:06.474Z,7.22
2018-10-01T23:54:43.719Z,7.62
2018-10-01T23:57:14.267Z,9.03
2018-10-01T23:59:44.842Z,10.35
